createdAt,value
2018-10-03T00:01:09.212Z,34.10
2018-10-03T00:03:37.606Z,38.07
2018-10-03T00:06:05.988Z,30.60
2018-10-03T00:08:34.275Z,30.97
2018-10-03T00:11:02.589Z,26.00
2018-10-03T00:13:30.974Z,25.90
2018-10-03T00:15:59.403Z,25.53
2018-10-03T00:18:27.752Z,37.73
2018-10-03T00:20:56.064Z,30.40
2018-10-03T00:23:24.492Z,26.17
2018-10-03T00:25:53.587Z,35.33
2018-10-03T00:28:21.900Z,26.73
2018-10-03T00:30:50.273Z,30.77
2018-10-03T00:33:18.608Z,29.67
2018-10-03T00:35:47.018Z,33.90
2018-10-03T00:38:15.704Z,24.97
2018-10-03T00:40:44.159Z,32.20
2018-10-03T00:43:12.493Z,28.13
2018-10-03T00:45:40.847Z,22.13
2018-10-03T00:48:09.611Z,27.77
2018-10-03T00:50:38.171Z,26.47
2018-10-03T00:53:06.884Z,26.47
2018-10-03T00:55:35.196Z,27.13
2018-10-03T00:58:03.576Z,20.97
2018-10-03T01:00:31.978Z,26.70
2018-10-03T01:03:00.312Z,23.47
2018-10-03T01:05:28.608Z,20.73
2018-10-03T01:07:56.924Z,26.43
2018-10-03T01:10:25.208Z,20.90
2018-10-03T01:12:53.508Z,27.80
2018-10-03T01:15:21.888Z,26.97
2018-10-03T01:17:50.194Z,30.87
2018-10-03T01:20:18.656Z,22.33
2018-10-03T01:22:46.932Z,22.63
2018-10-03T01:25:15.208Z,29.13
2018-10-03T01:27:43.495Z,32.03
2018-10-03T01:30:11.818Z,30.80
2018-10-03T01:32:40.141Z,27.50
2018-10-03T01:35:08.724Z,29.93
2018-10-03T01:37:37.072Z,29.53
2018-10-03T01:40:05.483Z,27.53
2018-10-03T01:42:33.787Z,23.57
2018-10-03T01:45:02.108Z,27.33
2018-10-03T01:47:30.516Z,27.73
2018-10-03T01:49:58.816Z,32.17
2018-10-03T01:52:27.092Z,36.57
2018-10-03T01:54:55.461Z,31.27
2018-10-03T01:57:23.755Z,21.40
2018-10-03T01:59:52.064Z,27.60
2018-10-03T02:02:20.403Z,22.80
2018-10-03T02:04:48.740Z,23.43
2018-10-03T02:07:17.064Z,24.00
2018-10-03T02:09:45.429Z,20.07
2018-10-03T02:12:13.762Z,30.03
2018-10-03T02:14:42.102Z,21.13
2018-10-03T02:17:10.413Z,20.60
2018-10-03T02:19:38.755Z,24.67
2018-10-03T02:22:07.049Z,21.97
2018-10-03T02:24:35.407Z,26.07
2018-10-03T02:27:03.753Z,31.47
2018-10-03T02:29:32.152Z,25.87
2018-10-03T02:32:00.449Z,34.77
2018-10-03T02:34:28.768Z,31.83
2018-10-03T02:36:57.079Z,29.80
2018-10-03T02:39:25.348Z,29.83
2018-10-03T02:41:53.688Z,23.60
2018-10-03T02:44:21.972Z,26.43
2018-10-03T02:46:50.254Z,23.53
2018-10-03T02:49:18.599Z,20.47
2018-10-03T02:51:46.901Z,18.27
2018-10-03T02:54:15.193Z,22.67
2018-10-03T02:56:43.455Z,19.67
2018-10-03T02:59:11.725Z,23.70
2018-10-03T03:01:40.278Z,21.00
2018-10-03T03:04:08.442Z,24.43
2018-10-03T03:06:36.741Z,29.93
2018-10-03T03:09:08.709Z,26.47
2018-10-03T03:11:36.960Z,24.87
2018-10-03T03:14:05.237Z,23.10
2018-10-03T03:16:33.515Z,27.07
2018-10-03T03:19:01.789Z,26.50
2018-10-03T03:21:30.119Z,25.63
2018-10-03T03:23:58.389Z,23.10
2018-10-03T03:26:26.647Z,25.07
2018-10-03T03:28:54.936Z,18.33
2018-10-03T03:31:23.253Z,19.90
2018-10-03T03:33:51.514Z,28.67
2018-10-03T03:36:19.798Z,21.13
2018-10-03T03:38:48.073Z,29.60
2018-10-03T03:41:16.452Z,21.13
2018-10-03T03:43:44.705Z,23.20
2018-10-03T03:46:12.978Z,23.37
2018-10-03T03:48:41.283Z,19.37
2018-10-03T03:51:09.537Z,24.63
2018-10-03T03:53:37.777Z,25.67
2018-10-03T03:56:06.081Z,25.00
2018-10-03T03:58:34.344Z,21.30
2018-10-03T04:01:02.636Z,20.43
2018-10-03T04:03:30.881Z,24.47
2018-10-03T04:05:59.197Z,28.90
2018-10-03T04:08:27.497Z,21.60
2018-10-03T04:10:55.866Z,20.40
2018-10-03T04:13:24.144Z,25.63
2018-10-03T04:15:52.437Z,22.70
2018-10-03T04:18:20.707Z,27.87
2018-10-03T04:20:48.961Z,32.53
2018-10-03T04:23:17.272Z,28.20
2018-10-03T04:25:45.569Z,30.80
2018-10-03T04:28:13.883Z,28.53
2018-10-03T04:30:42.158Z,26.57
2018-10-03T04:33:10.435Z,32.07
2018-10-03T04:35:38.759Z,31.33
2018-10-03T04:38:07.009Z,29.13
2018-10-03T04:40:35.273Z,34.17
2018-10-03T04:43:03.553Z,32.53
2018-10-03T04:45:31.821Z,33.80
2018-10-03T04:48:00.063Z,29.73
2018-10-03T04:50:28.347Z,34.70
2018-10-03T04:52:56.566Z,41.33
2018-10-03T04:55:24.860Z,38.87
2018-10-03T04:57:53.176Z,37.67
2018-10-03T05:00:21.394Z,35.13
2018-10-03T05:02:49.693Z,35.17
2018-10-03T05:05:18.988Z,31.97
2018-10-03T05:07:47.458Z,36.63
2018-10-03T05:10:15.750Z,34.67
2018-10-03T05:12:44.031Z,45.63
2018-10-03T05:15:12.345Z,36.70
2018-10-03T05:17:40.609Z,32.17
2018-10-03T05:20:08.857Z,30.37
2018-10-03T05:22:37.125Z,35.77
2018-10-03T05:25:05.558Z,30.50
2018-10-03T05:27:34.056Z,30.30
2018-10-03T05:30:02.345Z,33.53
2018-10-03T05:32:30.647Z,35.57
2018-10-03T05:34:58.921Z,39.27
2018-10-03T05:37:27.217Z,25.37
2018-10-03T05:39:55.520Z,35.00
2018-10-03T05:42:23.772Z,27.07
2018-10-03T05:44:52.121Z,37.17
2018-10-03T05:47:20.399Z,30.50
2018-10-03T05:49:48.613Z,30.57
2018-10-03T05:52:16.920Z,27.70
2018-10-03T05:54:45.184Z,29.13
2018-10-03T05:57:13.513Z,23.37
2018-10-03T05:59:41.771Z,32.07
2018-10-03T06:02:10.098Z,27.20
2018-10-03T06:04:38.351Z,34.17
2018-10-03T06:07:06.638Z,26.50
2018-10-03T06:09:34.905Z,23.83
2018-10-03T06:12:03.197Z,40.77
2018-10-03T06:14:31.416Z,32.27
2018-10-03T06:16:59.729Z,25.20
2018-10-03T06:19:27.989Z,28.43
2018-10-03T06:21:56.268Z,36.23
2018-10-03T06:24:24.541Z,32.67
2018-10-03T06:26:52.838Z,37.13
2018-10-03T06:29:21.189Z,28.70
2018-10-03T06:31:49.481Z,28.77
2018-10-03T06:34:17.743Z,33.80
2018-10-03T06:36:46.020Z,29.17
2018-10-03T06:39:14.313Z,36.53
2018-10-03T06:41:42.563Z,29.60
2018-10-03T06:44:11.484Z,22.67
2018-10-03T06:46:39.794Z,30.00
2018-10-03T06:49:08.090Z,30.30
2018-10-03T06:51:36.365Z,26.17
2018-10-03T06:54:04.674Z,29.47
2018-10-03T06:56:32.941Z,27.73
2018-10-03T06:59:01.667Z,31.70
2018-10-03T07:01:29.924Z,27.33
2018-10-03T07:03:58.177Z,22.37
2018-10-03T07:06:26.506Z,27.63
2018-10-03T07:08:54.952Z,23.20
2018-10-03T07:11:23.433Z,22.93
2018-10-03T07:13:51.853Z,26.43
2018-10-03T07:16:20.378Z,14.27
2018-10-03T07:18:48.621Z,18.73
2018-10-03T07:21:16.868Z,21.63
2018-10-03T07:23:45.335Z,17.83
2018-10-03T07:26:13.797Z,17.87
2018-10-03T07:28:42.030Z,19.53
2018-10-03T07:31:10.396Z,15.60
2018-10-03T07:33:38.912Z,18.97
2018-10-03T07:36:07.934Z,12.60
2018-10-03T07:38:36.419Z,14.07
2018-10-03T07:41:04.849Z,18.07
2018-10-03T07:43:33.215Z,14.50
2018-10-03T07:46:01.626Z,15.83
2018-10-03T07:48:30.105Z,16.27
2018-10-03T07:50:58.450Z,15.53
2018-10-03T07:53:27.066Z,12.73
2018-10-03T07:55:55.542Z,16.80
2018-10-03T07:58:23.978Z,10.23
2018-10-03T08:00:52.438Z,15.07
2018-10-03T08:03:20.775Z,12.23
2018-10-03T08:05:49.110Z,11.53
2018-10-03T08:08:17.438Z,13.27
2018-10-03T08:10:45.829Z,10.60
2018-10-03T08:13:14.179Z,13.03
2018-10-03T08:15:42.535Z,13.13
2018-10-03T08:18:10.886Z,12.50
2018-10-03T08:20:39.235Z,14.63
2018-10-03T08:23:07.640Z,9.70
2018-10-03T08:25:36.001Z,15.97
2018-10-03T08:28:04.600Z,10.07
2018-10-03T08:30:33.381Z,13.43
2018-10-03T08:33:01.997Z,13.80
2018-10-03T08:35:30.318Z,14.10
2018-10-03T08:37:58.639Z,14.00
2018-10-03T08:40:27.042Z,11.87
2018-10-03T08:42:55.389Z,13.97
2018-10-03T08:45:23.819Z,10.03
2018-10-03T08:47:52.090Z,7.10
2018-10-03T08:50:20.372Z,13.67
2018-10-03T08:52:48.697Z,10.50
2018-10-03T08:55:17.024Z,11.17
2018-10-03T08:57:45.565Z,15.17
2018-10-03T09:00:13.834Z,10.63
2018-10-03T09:02:42.160Z,14.30
2018-10-03T09:05:10.585Z,12.13
2018-10-03T09:07:39.037Z,17.47
2018-10-03T09:10:07.297Z,16.07
2018-10-03T09:12:35.605Z,14.03
2018-10-03T09:15:03.921Z,13.50
2018-10-03T09:17:32.228Z,13.70
2018-10-03T09:20:00.523Z,8.33
2018-10-03T09:22:29.192Z,8.23
2018-10-03T09:25:01.798Z,10.53
2018-10-03T09:27:31.897Z,8.30
2018-10-03T09:30:16.861Z,8.43
2018-10-03T09:32:47.384Z,12.80
2018-10-03T09:35:17.363Z,10.23
2018-10-03T09:37:46.195Z,14.60
2018-10-03T09:40:15.866Z,10.63
2018-10-03T09:42:45.818Z,10.57
2018-10-03T09:45:17.817Z,9.60
2018-10-03T09:47:48.724Z,8.50
2018-10-03T09:50:27.384Z,11.70
2018-10-03T09:52:56.691Z,9.50
2018-10-03T09:55:25.816Z,10.03
2018-10-03T09:57:54.781Z,10.93
2018-10-03T10:00:29.219Z,8.87
2018-10-03T10:02:58.315Z,11.37
2018-10-03T10:05:27.479Z,11.20
2018-10-03T10:07:56.698Z,10.30
2018-10-03T10:10:26.199Z,8.23
2018-10-03T10:12:55.587Z,10.77
2018-10-03T10:15:24.960Z,9.97
2018-10-03T10:17:55.996Z,12.50
2018-10-03T10:20:25.301Z,10.57
2018-10-03T10:22:54.748Z,13.53
2018-10-03T10:25:23.876Z,7.93
2018-10-03T10:27:52.999Z,11.07
2018-10-03T10:30:22.181Z,7.97
2018-10-03T10:32:51.906Z,8.20
2018-10-03T10:36:46.595Z,10.17
2018-10-03T10:39:16.249Z,7.93
2018-10-03T10:41:45.946Z,8.10
2018-10-03T10:44:17.135Z,6.37
2018-10-03T10:46:47.091Z,9.07
2018-10-03T10:49:19.852Z,10.60
2018-10-03T10:51:51.025Z,5.90
2018-10-03T10:54:19.247Z,10.07
2018-10-03T10:56:47.464Z,7.20
2018-10-03T10:59:15.966Z,10.67
2018-10-03T11:01:44.284Z,11.90
2018-10-03T11:04:12.606Z,7.60
2018-10-03T11:06:40.922Z,9.10
2018-10-03T11:09:09.180Z,9.47
2018-10-03T11:11:37.535Z,5.17
2018-10-03T11:14:05.813Z,5.33
2018-10-03T11:16:34.182Z,4.47
2018-10-03T11:19:02.666Z,5.67
2018-10-03T11:21:30.940Z,4.90
2018-10-03T11:23:59.404Z,6.50
2018-10-03T11:26:27.506Z,5.37
2018-10-03T11:28:55.758Z,7.80
2018-10-03T11:31:24.053Z,9.37
2018-10-03T11:33:52.394Z,4.60
2018-10-03T11:36:20.626Z,6.17
2018-10-03T11:38:48.877Z,9.07
2018-10-03T11:41:17.154Z,10.07
2018-10-03T11:43:45.460Z,8.00
2018-10-03T11:46:13.694Z,6.20
2018-10-03T11:48:41.958Z,4.83
2018-10-03T11:51:10.225Z,5.90
2018-10-03T11:53:38.498Z,7.07
2018-10-03T11:56:06.785Z,5.43
2018-10-03T11:58:35.062Z,8.00
2018-10-03T12:01:03.337Z,6.57
2018-10-03T12:03:31.726Z,8.30
2018-10-03T12:05:59.939Z,5.97
2018-10-03T12:08:28.281Z,6.93
2018-10-03T12:10:56.572Z,5.10
2018-10-03T12:13:24.865Z,8.57
2018-10-03T12:15:53.149Z,7.60
2018-10-03T12:18:21.461Z,4.83
2018-10-03T12:20:49.797Z,8.40
2018-10-03T12:23:18.054Z,7.97
2018-10-03T12:25:46.317Z,6.43
2018-10-03T12:28:14.603Z,7.20
2018-10-03T12:30:42.900Z,9.20
2018-10-03T12:33:11.206Z,7.03
2018-10-03T12:35:39.501Z,12.07
2018-10-03T12:38:07.774Z,7.33
2018-10-03T12:40:36.068Z,7.73
2018-10-03T12:43:04.338Z,8.13
2018-10-03T12:45:32.672Z,7.67
2018-10-03T12:48:00.918Z,5.10
2018-10-03T12:50:29.205Z,5.50
2018-10-03T12:52:57.494Z,5.63
2018-10-03T12:55:25.761Z,5.10
2018-10-03T12:57:54.088Z,5.30
2018-10-03T13:00:25.257Z,3.83
2018-10-03T13:02:53.613Z,3.80
2018-10-03T13:05:21.899Z,6.57
2018-10-03T13:07:50.187Z,6.80
2018-10-03T13:10:18.482Z,4.70
2018-10-03T13:12:46.750Z,7.17
2018-10-03T13:15:15.005Z,3.80
2018-10-03T13:17:43.320Z,5.30
2018-10-03T13:20:11.614Z,5.33
2018-10-03T13:22:39.856Z,5.67
2018-10-03T13:25:08.152Z,6.13
2018-10-03T13:27:36.428Z,6.87
2018-10-03T13:30:04.786Z,6.73
2018-10-03T13:32:33.168Z,8.87
2018-10-03T13:35:01.460Z,7.23
2018-10-03T13:37:29.791Z,7.13
2018-10-03T13:39:58.061Z,8.47
2018-10-03T13:42:26.343Z,7.20
2018-10-03T13:44:54.634Z,7.43
2018-10-03T13:47:22.917Z,7.77
2018-10-03T13:49:51.205Z,8.23
2018-10-03T13:52:19.677Z,7.53
2018-10-03T13:54:48.002Z,9.70
2018-10-03T13:57:16.325Z,9.33
2018-10-03T13:59:44.688Z,9.80
2018-10-03T14:02:12.925Z,8.87
2018-10-03T14:04:41.205Z,8.27
2018-10-03T14:07:09.448Z,11.10
2018-10-03T14:09:37.757Z,7.70
2018-10-03T14:12:06.042Z,7.13
2018-10-03T14:14:34.331Z,10.70
2018-10-03T14:17:02.636Z,9.67
2018-10-03T14:19:30.909Z,14.20
2018-10-03T14:21:59.185Z,7.03
2018-10-03T14:24:27.572Z,13.43
2018-10-03T14:26:55.857Z,13.80
2018-10-03T14:29:24.145Z,11.60
2018-10-03T14:31:52.493Z,8.67
2018-10-03T14:34:21.021Z,7.53
2018-10-03T14:36:49.353Z,12.30
2018-10-03T14:39:17.798Z,11.70
2018-10-03T14:41:46.067Z,6.07
2018-10-03T14:44:14.359Z,6.50
2018-10-03T14:46:42.685Z,8.13
2018-10-03T14:49:11.117Z,7.90
2018-10-03T14:51:39.345Z,11.13
2018-10-03T14:54:07.735Z,9.00
2018-10-03T14:56:36.030Z,11.70
2018-10-03T14:59:04.309Z,9.73
2018-10-03T15:01:32.678Z,11.83
2018-10-03T15:04:00.951Z,8.27
2018-10-03T15:06:29.235Z,4.97
2018-10-03T15:08:59.051Z,8.77
2018-10-03T15:11:27.467Z,8.13
2018-10-03T15:13:55.709Z,10.43
2018-10-03T15:16:24.001Z,6.90
2018-10-03T15:18:52.326Z,9.70
2018-10-03T15:21:20.618Z,10.80
2018-10-03T15:23:48.909Z,8.43
2018-10-03T15:26:17.221Z,8.20
2018-10-03T15:28:45.514Z,9.07
2018-10-03T15:31:13.793Z,10.63
2018-10-03T15:33:42.185Z,7.03
2018-10-03T15:36:10.484Z,5.47
2018-10-03T15:38:39.032Z,8.10
2018-10-03T15:41:07.321Z,10.13
2018-10-03T15:43:35.913Z,9.60
2018-10-03T15:46:04.345Z,8.00
2018-10-03T15:48:32.698Z,12.60
2018-10-03T15:51:01.005Z,8.90
2018-10-03T15:53:29.261Z,7.60
2018-10-03T15:55:57.561Z,8.43
2018-10-03T15:58:25.916Z,9.03
2018-10-03T16:00:54.201Z,11.37
2018-10-03T16:03:22.533Z,7.23
2018-10-03T16:05:50.868Z,11.17
2018-10-03T16:08:19.269Z,9.47
2018-10-03T16:10:47.579Z,7.20
2018-10-03T16:13:15.881Z,12.40
2018-10-03T16:15:44.176Z,13.10
2018-10-03T16:18:12.428Z,10.03
2018-10-03T16:20:40.754Z,9.13
2018-10-03T16:23:08.997Z,15.13
2018-10-03T16:25:37.252Z,6.00
2018-10-03T16:28:05.690Z,10.87
2018-10-03T16:30:33.927Z,7.37
2018-10-03T16:33:02.172Z,10.60
2018-10-03T16:35:30.490Z,15.20
2018-10-03T16:37:58.760Z,11.43
2018-10-03T16:40:27.160Z,8.57
2018-10-03T16:42:55.457Z,9.60
2018-10-03T16:45:23.771Z,12.13
2018-10-03T16:47:52.514Z,12.27
2018-10-03T16:50:20.833Z,10.13
2018-10-03T16:52:49.348Z,9.63
2018-10-03T16:55:17.870Z,14.80
2018-10-03T16:57:46.182Z,8.93
2018-10-03T17:00:14.493Z,11.53
2018-10-03T17:02:43.386Z,16.40
2018-10-03T17:05:11.884Z,11.03
2018-10-03T17:07:40.518Z,12.03
2018-10-03T17:10:08.896Z,15.30
2018-10-03T17:12:37.192Z,7.87
2018-10-03T17:15:05.588Z,9.23
2018-10-03T17:17:33.859Z,9.00
2018-10-03T17:20:02.297Z,9.83
2018-10-03T17:22:30.574Z,11.03
2018-10-03T17:24:59.033Z,10.97
2018-10-03T17:27:27.334Z,13.83
2018-10-03T17:29:55.661Z,10.50
2018-10-03T17:32:23.949Z,11.37
2018-10-03T17:34:52.311Z,12.27
2018-10-03T17:37:20.684Z,9.43
2018-10-03T17:39:48.964Z,12.50
2018-10-03T17:42:17.297Z,10.60
2018-10-03T17:44:45.626Z,9.00
2018-10-03T17:47:13.902Z,8.57
2018-10-03T17:49:42.240Z,12.60
2018-10-03T17:52:10.546Z,6.87
2018-10-03T17:54:38.993Z,9.87
2018-10-03T17:57:07.575Z,6.83
2018-10-03T17:59:35.885Z,13.30
2018-10-03T18:02:07.885Z,8.80
2018-10-03T18:04:36.209Z,11.13
2018-10-03T18:07:04.510Z,9.30
2018-10-03T18:09:32.998Z,13.57
2018-10-03T18:12:01.278Z,9.60
2018-10-03T18:14:29.603Z,10.57
2018-10-03T18:16:57.910Z,8.50
2018-10-03T18:19:26.240Z,7.87
2018-10-03T18:21:54.751Z,8.47
2018-10-03T18:24:23.064Z,9.63
2018-10-03T18:26:51.329Z,8.83
2018-10-03T18:29:19.863Z,11.13
2018-10-03T18:31:48.137Z,11.70
2018-10-03T18:34:16.476Z,10.17
2018-10-03T18:36:44.782Z,11.83
2018-10-03T18:39:13.183Z,8.13
2018-10-03T18:41:41.443Z,9.47
2018-10-03T18:44:09.836Z,14.03
2018-10-03T18:46:38.128Z,10.67
2018-10-03T18:49:06.566Z,9.73
2018-10-03T18:51:34.958Z,11.50
2018-10-03T18:54:03.397Z,7.77
2018-10-03T18:56:31.661Z,12.07
2018-10-03T18:58:59.946Z,14.67
2018-10-03T19:01:28.473Z,10.80
2018-10-03T19:03:56.789Z,9.13
2018-10-03T19:06:25.100Z,11.37
2018-10-03T19:08:53.550Z,13.30
2018-10-03T19:11:21.889Z,7.17
2018-10-03T19:13:50.152Z,16.60
2018-10-03T19:16:18.484Z,8.40
2018-10-03T19:18:46.779Z,10.27
2018-10-03T19:21:15.194Z,9.30
2018-10-03T19:23:43.515Z,16.20
2018-10-03T19:26:11.855Z,11.40
2018-10-03T19:28:40.190Z,11.53
2018-10-03T19:31:08.624Z,15.80
2018-10-03T19:33:36.946Z,14.23
2018-10-03T19:36:05.236Z,9.47
2018-10-03T19:38:34.326Z,8.40
2018-10-03T19:41:02.611Z,10.73
2018-10-03T19:43:30.962Z,12.10
2018-10-03T19:45:59.301Z,9.77
2018-10-03T19:48:27.719Z,9.83
2018-10-03T19:50:55.953Z,13.13
2018-10-03T19:53:29.678Z,13.63
2018-10-03T19:55:57.928Z,9.17
2018-10-03T19:58:26.233Z,12.33
2018-10-03T20:00:54.599Z,10.00
2018-10-03T20:03:22.922Z,12.70
2018-10-03T20:05:51.267Z,8.63
2018-10-03T20:08:20.048Z,16.23
2018-10-03T20:10:48.473Z,10.40
2018-10-03T20:13:16.797Z,11.20
2018-10-03T20:15:45.148Z,11.83
2018-10-03T20:18:13.613Z,10.40
2018-10-03T20:20:41.868Z,7.87
2018-10-03T20:23:10.117Z,10.20
2018-10-03T20:25:38.566Z,12.40
2018-10-03T20:28:06.962Z,8.83
2018-10-03T20:30:35.331Z,10.47
2018-10-03T20:33:03.566Z,9.00
2018-10-03T20:35:32.026Z,11.13
2018-10-03T20:38:00.635Z,11.97
2018-10-03T20:40:28.985Z,11.57
2018-10-03T20:42:57.272Z,11.63
2018-10-03T20:45:25.533Z,12.30
2018-10-03T20:47:53.825Z,11.50
2018-10-03T20:50:22.121Z,11.93
2018-10-03T20:52:50.445Z,11.17
2018-10-03T20:55:18.741Z,7.87
2018-10-03T20:57:47.004Z,6.43
2018-10-03T21:00:15.331Z,8.27
2018-10-03T21:02:43.581Z,6.40
2018-10-03T21:05:14.313Z,9.87
2018-10-03T21:07:42.617Z,10.20
2018-10-03T21:10:10.897Z,9.80
2018-10-03T21:12:39.179Z,11.53
2018-10-03T21:15:07.452Z,9.70
2018-10-03T21:17:35.783Z,9.77
2018-10-03T21:20:04.381Z,8.67
2018-10-03T21:22:32.705Z,13.37
2018-10-03T21:25:01.178Z,13.47
2018-10-03T21:27:29.381Z,11.63
2018-10-03T21:29:57.704Z,11.07
2018-10-03T21:32:26.033Z,11.43
2018-10-03T21:34:54.259Z,11.43
2018-10-03T21:37:22.525Z,11.93
2018-10-03T21:39:50.795Z,17.70
2018-10-03T21:42:19.122Z,8.10
2018-10-03T21:44:47.802Z,7.37
2018-10-03T21:47:16.049Z,13.00
2018-10-03T21:49:44.396Z,14.10
2018-10-03T21:52:12.654Z,12.23
2018-10-03T21:54:41.046Z,14.17
2018-10-03T21:57:09.340Z,7.57
2018-10-03T21:59:37.625Z,14.83
2018-10-03T22:02:05.932Z,11.00
2018-10-03T22:04:34.242Z,11.63
2018-10-03T22:07:02.477Z,17.23
2018-10-03T22:09:30.796Z,15.07
2018-10-03T22:11:59.021Z,12.00
2018-10-03T22:14:27.284Z,11.03
2018-10-03T22:16:55.557Z,13.67
2018-10-03T22:19:23.841Z,14.37
2018-10-03T22:21:52.110Z,15.80
2018-10-03T22:24:20.392Z,12.17
2018-10-03T22:26:48.727Z,10.57
2018-10-03T22:29:17.016Z,12.27
2018-10-03T22:31:45.269Z,10.93
2018-10-03T22:34:13.545Z,11.70
2018-10-03T22:36:41.821Z,9.87
2018-10-03T22:39:10.608Z,14.57
2018-10-03T22:41:38.948Z,14.87
2018-10-03T22:44:07.214Z,9.80
2018-10-03T22:46:35.488Z,13.77
2018-10-03T22:49:06.810Z,15.63
2018-10-03T22:51:35.081Z,11.43
2018-10-03T22:54:03.359Z,15.47
2018-10-03T22:56:31.635Z,9.83
2018-10-03T22:58:59.877Z,18.97
2018-10-03T23:01:28.153Z,15.20
2018-10-03T23:03:56.405Z,10.87
2018-10-03T23:06:24.676Z,15.10
2018-10-03T23:08:52.985Z,12.10
2018-10-03T23:11:21.246Z,13.67
2018-10-03T23:13:49.573Z,13.13
2018-10-03T23:16:17.877Z,10.70
2018-10-03T23:18:46.204Z,13.37
2018-10-03T23:21:14.548Z,11.17
2018-10-03T23:23:42.842Z,18.50
2018-10-03T23:26:11.109Z,13.70
2018-10-03T23:28:39.393Z,15.53
2018-10-03T23:31:07.642Z,16.73
2018-10-03T23:33:35.927Z,14.17
2018-10-03T23:36:04.221Z,14.40
2018-10-03T23:38:32.709Z,14.83
2018-10-03T23:41:00.978Z,14.17
2018-10-03T23:43:29.257Z,19.40
2018-10-03T23:45:57.525Z,17.50
2018-10-03T23:48:25.813Z,17.77
2018-10-03T23:50:54.085Z,20.47
2018-10-03T23:53:22.855Z,18.73
2018-10-03T23:55:51.136Z,16.77
2018-10-03T23:58:19.369Z,14.90
